Time;durP1;ratioP1;P1;durP2;ratioP2;P2;SDS_P1;SDS_P2;PMS_P1;PMS_P2;Temp;Humidity;BMP_temperature;BMP_pressure;BME280_temperature;BME280_humidity;BME280_pressure;Samples;Min_cycle;Max_cycle;Signal;HPM_P1;HPM_P2
2023/12/03 06:00:29;;;;;;;14.47;13.27;;;;;;;;;;1742227;28;20410;-76
2023/12/03 06:01:24;;;;;;;14.00;12.80;;;;;;;;;;1742169;28;20485;-76
2023/12/03 06:02:16;;;;;;;14.13;12.93;;;;;;;;;;1742264;28;20207;-76
2023/12/03 06:03:07;;;;;;;14.48;13.27;;;;;;;;;;1742224;28;20567;-76
2023/12/03 06:03:59;;;;;;;14.50;13.30;;;;;;;;;;1742197;28;20195;-75
2023/12/03 06:04:51;;;;;;;14.95;13.65;;;;;;;;;;1742178;28;20280;-76
2023/12/03 06:05:42;;;;;;;19.88;18.10;;;;;;;;;;1742143;28;20247;-76
2023/12/03 06:06:33;;;;;;;24.63;22.33;;;;;;;;;;1741896;28;20203;-77
2023/12/03 06:07:25;;;;;;;23.63;21.42;;;;;;;;;;1742104;28;20210;-76
2023/12/03 06:08:16;;;;;;;23.77;21.58;;;;;;;;;;1742298;28;20203;-76
2023/12/03 06:09:09;;;;;;;22.50;20.45;;;;;;;;;;1742192;28;20616;-77
2023/12/03 06:10:01;;;;;;;22.80;20.60;;;;;;;;;;1742836;28;20218;-77
2023/12/03 06:10:52;;;;;;;22.27;20.17;;;;;;;;;;1749061;28;20210;-76
2023/12/03 06:11:43;;;;;;;21.42;19.42;;;;;;;;;;1742276;28;20195;-77
2023/12/03 06:12:35;;;;;;;20.67;18.67;;;;;;;;;;1742263;28;20757;-76
2023/12/03 06:13:26;;;;;;;19.75;18.05;;;;;;;;;;1742115;28;20612;-76
2023/12/03 06:14:17;;;;;;;19.67;17.92;;;;;;;;;;1745675;28;20195;-77
2023/12/03 06:15:09;;;;;;;19.25;17.65;;;;;;;;;;1748236;28;20199;-76
2023/12/03 06:16:02;;;;;;;19.60;17.90;;;;;;;;;;1748391;28;20328;-76
2023/12/03 06:16:53;;;;;;;21.45;19.45;;;;;;;;;;1747221;28;20205;-77
2023/12/03 06:17:45;;;;;;;17.80;16.23;;;;;;;;;;1742629;28;20211;-76
2023/12/03 06:18:36;;;;;;;18.13;16.52;;;;;;;;;;1748741;28;20232;-77
2023/12/03 06:19:27;;;;;;;18.15;16.45;;;;;;;;;;1742092;28;20207;-77
2023/12/03 06:20:19;;;;;;;18.10;16.23;;;;;;;;;;1743936;28;20210;-77
2023/12/03 06:21:10;;;;;;;25.80;23.20;;;;;;;;;;1742944;28;20233;-76
2023/12/03 06:22:01;;;;;;;32.42;28.92;;;;;;;;;;1742087;28;20257;-76
2023/12/03 06:22:53;;;;;;;41.42;36.42;;;;;;;;;;1742059;28;20211;-76
2023/12/03 06:23:44;;;;;;;40.58;35.47;;;;;;;;;;1742144;28;20218;-76
2023/12/03 06:24:35;;;;;;;30.50;27.20;;;;;;;;;;1742121;28;20199;-76
2023/12/03 06:25:28;;;;;;;24.73;22.13;;;;;;;;;;1744642;28;20194;-76
2023/12/03 06:26:19;;;;;;;36.67;32.78;;;;;;;;;;1747870;28;20202;-76
2023/12/03 06:27:11;;;;;;;36.28;32.13;;;;;;;;;;1742196;28;20199;-76
2023/12/03 06:28:02;;;;;;;29.25;26.15;;;;;;;;;;1742186;28;20231;-77
2023/12/03 06:28:53;;;;;;;27.45;24.52;;;;;;;;;;1742074;28;20256;-76
2023/12/03 06:29:45;;;;;;;26.45;23.38;;;;;;;;;;1742085;28;20675;-77
2023/12/03 06:30:36;;;;;;;22.35;20.25;;;;;;;;;;1744091;28;20659;-77
2023/12/03 06:31:28;;;;;;;21.10;19.10;;;;;;;;;;1745073;28;20199;-76
2023/12/03 06:32:20;;;;;;;20.38;18.40;;;;;;;;;;1742004;28;20203;-76
2023/12/03 06:33:13;;;;;;;18.88;17.08;;;;;;;;;;1742088;28;20210;-77
2023/12/03 06:34:05;;;;;;;18.05;16.35;;;;;;;;;;1741854;28;20295;-77
2023/12/03 06:34:56;;;;;;;17.10;15.60;;;;;;;;;;1747697;28;20202;-77
2023/12/03 06:35:47;;;;;;;18.27;15.93;;;;;;;;;;1743230;28;20188;-76
2023/12/03 06:36:39;;;;;;;16.17;14.75;;;;;;;;;;1744281;28;20191;-77
2023/12/03 06:37:30;;;;;;;16.65;15.15;;;;;;;;;;1748929;28;20209;-77
2023/12/03 06:38:22;;;;;;;16.25;14.85;;;;;;;;;;1742726;28;20195;-76
2023/12/03 06:39:13;;;;;;;16.85;15.25;;;;;;;;;;1742038;28;20199;-77
2023/12/03 06:40:04;;;;;;;15.30;14.00;;;;;;;;;;1741551;28;20199;-77
2023/12/03 06:40:56;;;;;;;15.98;14.50;;;;;;;;;;1736934;28;20656;-77
2023/12/03 06:41:47;;;;;;;15.73;14.40;;;;;;;;;;1738083;28;20203;-77
2023/12/03 06:42:40;;;;;;;15.50;14.20;;;;;;;;;;1742049;28;20203;-77
2023/12/03 06:43:31;;;;;;;14.60;13.35;;;;;;;;;;1741917;28;20679;-77
2023/12/03 06:44:23;;;;;;;16.45;14.77;;;;;;;;;;1745143;28;20190;-77
2023/12/03 06:45:15;;;;;;;14.80;13.50;;;;;;;;;;1748267;28;20209;-77
2023/12/03 06:46:06;;;;;;;15.55;14.05;;;;;;;;;;1741287;28;20265;-77
2023/12/03 06:46:59;;;;;;;15.00;13.70;;;;;;;;;;1741772;28;20195;-77
2023/12/03 06:47:50;;;;;;;15.40;14.10;;;;;;;;;;1741701;28;20219;-77
2023/12/03 06:48:42;;;;;;;16.30;14.80;;;;;;;;;;1741755;28;20214;-76
2023/12/03 06:49:34;;;;;;;14.93;13.63;;;;;;;;;;1741688;28;20294;-77
2023/12/03 06:50:25;;;;;;;14.90;13.60;;;;;;;;;;1742448;28;20198;-78
2023/12/03 06:51:16;;;;;;;15.57;14.18;;;;;;;;;;1742418;28;20199;-79
2023/12/03 06:52:08;;;;;;;15.60;14.30;;;;;;;;;;1742754;28;20264;-78
2023/12/03 06:52:59;;;;;;;15.82;14.23;;;;;;;;;;1742461;28;20210;-81
2023/12/03 06:53:50;;;;;;;14.48;13.27;;;;;;;;;;1742987;28;20225;-86
2023/12/03 06:54:42;;;;;;;14.90;13.57;;;;;;;;;;1742828;28;20530;-81
2023/12/03 06:55:34;;;;;;;15.02;13.73;;;;;;;;;;1742705;28;20609;-82
2023/12/03 06:56:25;;;;;;;14.50;13.25;;;;;;;;;;1742566;28;20245;-81
2023/12/03 06:57:17;;;;;;;14.52;13.23;;;;;;;;;;1742905;28;20209;-81
2023/12/03 06:58:08;;;;;;;13.80;12.55;;;;;;;;;;1742716;28;20199;-81
2023/12/03 06:59:00;;;;;;;15.20;13.90;;;;;;;;;;1742900;28;20203;-81
2023/12/03 06:59:51;;;;;;;14.45;13.25;;;;;;;;;;1743030;28;20203;-81
2023/12/03 07:00:43;;;;;;;15.90;14.60;;;;;;;;;;1742855;28;20195;-81
2023/12/03 07:01:34;;;;;;;14.98;13.68;;;;;;;;;;1741934;28;20215;-82
2023/12/03 07:02:27;;;;;;;15.75;14.30;;;;;;;;;;1741840;28;20617;-81
2023/12/03 07:03:19;;;;;;;15.10;13.80;;;;;;;;;;1741907;28;20230;-81
2023/12/03 07:04:11;;;;;;;16.50;15.10;;;;;;;;;;1741942;28;20679;-81
2023/12/03 07:05:02;;;;;;;15.50;14.23;;;;;;;;;;1742066;28;20211;-84
2023/12/03 07:05:55;;;;;;;15.60;14.30;;;;;;;;;;1742113;28;20195;-82
2023/12/03 07:06:46;;;;;;;14.27;13.07;;;;;;;;;;1741863;28;20207;-81
2023/12/03 07:07:38;;;;;;;15.88;14.55;;;;;;;;;;1743092;28;20220;-80
2023/12/03 07:08:30;;;;;;;16.05;14.70;;;;;;;;;;1743903;28;20195;-80
2023/12/03 07:09:22;;;;;;;16.30;14.90;;;;;;;;;;1742678;28;20238;-79
2023/12/03 07:10:13;;;;;;;16.40;15.00;;;;;;;;;;1742652;28;20574;-83
2023/12/03 07:11:05;;;;;;;15.52;14.15;;;;;;;;;;1742624;28;20230;-81
2023/12/03 07:11:56;;;;;;;15.32;14.10;;;;;;;;;;1742829;28;20203;-80
2023/12/03 07:12:48;;;;;;;15.90;14.60;;;;;;;;;;1742609;28;20233;-79
2023/12/03 07:13:40;;;;;;;15.88;14.55;;;;;;;;;;1743052;28;20203;-80
2023/12/03 07:14:31;;;;;;;15.85;14.35;;;;;;;;;;1742777;28;20210;-80
2023/12/03 07:15:22;;;;;;;15.77;14.38;;;;;;;;;;1742535;28;20286;-80
2023/12/03 07:16:14;;;;;;;15.90;14.50;;;;;;;;;;1741948;28;21193;-80
2023/12/03 07:17:06;;;;;;;16.13;14.73;;;;;;;;;;1749054;28;20729;-79
2023/12/03 07:17:58;;;;;;;15.35;14.07;;;;;;;;;;1746270;28;20225;-79
2023/12/03 07:18:50;;;;;;;16.13;14.73;;;;;;;;;;1742628;28;20615;-80
2023/12/03 07:19:43;;;;;;;15.65;14.35;;;;;;;;;;1743630;28;20210;-79
2023/12/03 07:20:34;;;;;;;15.40;14.10;;;;;;;;;;1749797;28;20194;-81
2023/12/03 07:21:26;;;;;;;16.02;14.63;;;;;;;;;;1749149;28;20218;-81
2023/12/03 07:22:17;;;;;;;16.30;14.90;;;;;;;;;;1735978;28;20200;-80
2023/12/03 07:23:08;;;;;;;15.77;14.40;;;;;;;;;;1735613;28;20196;-81
2023/12/03 07:24:00;;;;;;;16.92;15.32;;;;;;;;;;1740874;28;20686;-81
2023/12/03 07:24:51;;;;;;;16.30;14.90;;;;;;;;;;1742997;28;20207;-81
2023/12/03 07:25:42;;;;;;;16.85;15.38;;;;;;;;;;1742729;28;20203;-81
2023/12/03 07:26:34;;;;;;;16.13;14.75;;;;;;;;;;1742281;28;20203;-79
2023/12/03 07:27:25;;;;;;;17.15;15.75;;;;;;;;;;1742653;28;20610;-81
2023/12/03 07:28:16;;;;;;;17.00;15.50;;;;;;;;;;1742455;28;20685;-79
2023/12/03 07:29:08;;;;;;;15.98;14.57;;;;;;;;;;1742456;28;20199;-79
2023/12/03 07:29:59;;;;;;;15.77;14.38;;;;;;;;;;1742774;28;20207;-80
2023/12/03 07:30:51;;;;;;;16.55;14.95;;;;;;;;;;1742665;28;20195;-81
2023/12/03 07:31:42;;;;;;;15.52;14.23;;;;;;;;;;1743090;28;20203;-81
2023/12/03 07:32:33;;;;;;;16.63;15.23;;;;;;;;;;1743171;28;20740;-80
2023/12/03 07:33:27;;;;;;;15.88;14.57;;;;;;;;;;1742503;28;20278;-80
2023/12/03 07:34:18;;;;;;;16.00;14.60;;;;;;;;;;1742486;28;20207;-80
2023/12/03 07:35:09;;;;;;;16.75;15.35;;;;;;;;;;1742470;28;20290;-79
2023/12/03 07:36:01;;;;;;;17.08;15.68;;;;;;;;;;1742283;28;20202;-79
2023/12/03 07:36:52;;;;;;;17.35;15.85;;;;;;;;;;1742773;28;20218;-79
2023/12/03 07:37:43;;;;;;;17.65;16.15;;;;;;;;;;1742387;28;20323;-79
2023/12/03 07:38:35;;;;;;;18.35;16.75;;;;;;;;;;1742666;28;20659;-80
2023/12/03 07:39:27;;;;;;;17.83;16.33;;;;;;;;;;1742495;28;20257;-81
2023/12/03 07:40:18;;;;;;;17.80;16.20;;;;;;;;;;1742563;28;20241;-81
2023/12/03 07:41:11;;;;;;;17.23;15.75;;;;;;;;;;1742696;28;20303;-80
2023/12/03 07:42:02;;;;;;;17.67;16.17;;;;;;;;;;1742505;28;20276;-80
2023/12/03 07:42:54;;;;;;;19.05;17.45;;;;;;;;;;1742256;28;20207;-80
2023/12/03 07:43:45;;;;;;;19.00;17.30;;;;;;;;;;1742660;28;20214;-80
2023/12/03 07:44:36;;;;;;;19.00;17.30;;;;;;;;;;1742709;28;20663;-80
2023/12/03 07:45:28;;;;;;;18.27;16.75;;;;;;;;;;1742248;28;20195;-80
2023/12/03 07:46:19;;;;;;;20.13;18.33;;;;;;;;;;1742030;28;20195;-80
2023/12/03 07:47:10;;;;;;;19.00;17.38;;;;;;;;;;1742001;28;20615;-81
2023/12/03 07:48:02;;;;;;;19.48;17.70;;;;;;;;;;1742040;28;20231;-78
2023/12/03 07:48:55;;;;;;;19.77;18.15;;;;;;;;;;1742591;28;20211;-78
2023/12/03 07:49:46;;;;;;;19.98;18.30;;;;;;;;;;1742886;28;20199;-78
2023/12/03 07:50:38;;;;;;;19.77;18.08;;;;;;;;;;1741723;28;20615;-78
2023/12/03 07:51:30;;;;;;;18.95;17.35;;;;;;;;;;1742017;28;20207;-78
2023/12/03 07:52:22;;;;;;;18.25;16.73;;;;;;;;;;1741827;28;20617;-76
2023/12/03 07:53:13;;;;;;;18.25;16.65;;;;;;;;;;1741491;28;20199;-75
2023/12/03 07:54:05;;;;;;;17.95;16.40;;;;;;;;;;1741489;28;20260;-73
2023/12/03 07:54:56;;;;;;;16.98;15.57;;;;;;;;;;1741323;28;20686;-73
2023/12/03 07:55:47;;;;;;;19.00;17.33;;;;;;;;;;1740745;28;20203;-73
2023/12/03 07:56:40;;;;;;;18.55;16.90;;;;;;;;;;1739582;28;20563;-74
2023/12/03 07:57:31;;;;;;;36.60;17.92;;;;;;;;;;1740967;28;20203;-73
2023/12/03 07:58:22;;;;;;;17.17;15.68;;;;;;;;;;1740889;28;20199;-75
2023/12/03 07:59:14;;;;;;;18.33;16.70;;;;;;;;;;1741004;28;20210;-75
2023/12/03 08:00:06;;;;;;;16.45;15.05;;;;;;;;;;1741261;28;20211;-74
2023/12/03 08:00:59;;;;;;;17.35;15.80;;;;;;;;;;1741281;28;20199;-74
2023/12/03 08:01:51;;;;;;;17.48;16.02;;;;;;;;;;1740750;28;20233;-74
2023/12/03 08:02:42;;;;;;;17.00;15.55;;;;;;;;;;1741318;28;20207;-73
2023/12/03 08:03:33;;;;;;;16.75;15.35;;;;;;;;;;1741254;28;20199;-73
2023/12/03 08:04:27;;;;;;;16.45;15.05;;;;;;;;;;1741346;28;20292;-74
2023/12/03 08:05:18;;;;;;;17.33;15.82;;;;;;;;;;1741592;28;20238;-72
2023/12/03 08:06:09;;;;;;;17.92;16.33;;;;;;;;;;1741746;28;20737;-73
2023/12/03 08:07:01;;;;;;;17.83;16.33;;;;;;;;;;1741423;28;20191;-73
2023/12/03 08:07:52;;;;;;;18.13;16.45;;;;;;;;;;1741382;28;20238;-73
2023/12/03 08:08:44;;;;;;;18.08;16.58;;;;;;;;;;1741423;28;20245;-73
2023/12/03 08:09:35;;;;;;;19.35;17.70;;;;;;;;;;1741318;28;20206;-73
2023/12/03 08:10:27;;;;;;;18.27;16.67;;;;;;;;;;1741444;28;20681;-73
2023/12/03 08:11:19;;;;;;;17.65;16.15;;;;;;;;;;1741365;28;20234;-73
2023/12/03 08:12:10;;;;;;;18.80;17.20;;;;;;;;;;1741393;28;20648;-73
2023/12/03 08:13:02;;;;;;;19.58;17.95;;;;;;;;;;1741357;28;20694;-73
2023/12/03 08:13:54;;;;;;;19.30;17.60;;;;;;;;;;1741347;28;20589;-74
2023/12/03 08:14:46;;;;;;;23.50;21.40;;;;;;;;;;1741384;28;20203;-76
2023/12/03 08:15:37;;;;;;;26.48;24.13;;;;;;;;;;1741404;28;20203;-74
2023/12/03 08:16:28;;;;;;;22.48;20.48;;;;;;;;;;1740964;28;20675;-74
2023/12/03 08:17:20;;;;;;;19.60;17.77;;;;;;;;;;1741256;28;20211;-74
2023/12/03 08:18:11;;;;;;;18.67;16.98;;;;;;;;;;1741458;28;20210;-74
2023/12/03 08:19:02;;;;;;;19.50;17.83;;;;;;;;;;1741253;28;20256;-74
2023/12/03 08:19:56;;;;;;;19.98;18.13;;;;;;;;;;1741317;28;20284;-74
2023/12/03 08:20:47;;;;;;;17.83;16.33;;;;;;;;;;1741297;28;20206;-74
2023/12/03 08:21:39;;;;;;;19.73;17.88;;;;;;;;;;1741888;28;20233;-74
2023/12/03 08:22:30;;;;;;;19.38;17.65;;;;;;;;;;1741407;28;20215;-76
2023/12/03 08:23:21;;;;;;;19.05;17.45;;;;;;;;;;1741346;28;20199;-76
2023/12/03 08:24:13;;;;;;;19.17;17.50;;;;;;;;;;1741221;28;20227;-75
2023/12/03 08:25:06;;;;;;;19.15;17.35;;;;;;;;;;1741267;28;20218;-75
2023/12/03 08:25:58;;;;;;;19.65;17.95;;;;;;;;;;1740758;28;20596;-76
2023/12/03 08:26:50;;;;;;;19.52;17.73;;;;;;;;;;1740703;28;20571;-76
2023/12/03 08:27:42;;;;;;;19.42;17.70;;;;;;;;;;1743306;28;20294;-76
2023/12/03 08:28:34;;;;;;;19.15;17.45;;;;;;;;;;1741412;28;20290;-75
2023/12/03 08:29:25;;;;;;;18.88;17.08;;;;;;;;;;1737401;28;20200;-76
2023/12/03 08:30:18;;;;;;;19.55;17.65;;;;;;;;;;1736597;28;20672;-76
2023/12/03 08:31:10;;;;;;;20.60;18.67;;;;;;;;;;1741327;28;20252;-76
2023/12/03 08:32:02;;;;;;;20.05;18.15;;;;;;;;;;1741331;28;20197;-76
2023/12/03 08:32:53;;;;;;;19.10;17.40;;;;;;;;;;1741268;28;20675;-76
2023/12/03 08:33:44;;;;;;;18.00;16.23;;;;;;;;;;1741158;28;20225;-76
2023/12/03 08:34:36;;;;;;;18.58;16.83;;;;;;;;;;1741223;28;20209;-76
2023/12/03 08:35:29;;;;;;;18.10;16.20;;;;;;;;;;1741202;28;20211;-76
2023/12/03 08:36:21;;;;;;;18.17;16.40;;;;;;;;;;1740915;28;20743;-76
2023/12/03 08:37:12;;;;;;;17.77;16.08;;;;;;;;;;1741221;28;20203;-76
2023/12/03 08:38:04;;;;;;;19.00;17.27;;;;;;;;;;1741105;28;20691;-77
2023/12/03 08:38:55;;;;;;;17.63;15.95;;;;;;;;;;1741313;28;20210;-76
2023/12/03 08:39:46;;;;;;;18.30;16.42;;;;;;;;;;1741191;28;20812;-75
2023/12/03 08:40:39;;;;;;;18.33;16.52;;;;;;;;;;1741307;28;20205;-76
2023/12/03 08:41:30;;;;;;;18.05;16.45;;;;;;;;;;1742339;28;20202;-76
2023/12/03 08:42:21;;;;;;;19.08;17.25;;;;;;;;;;1741181;28;20634;-77
2023/12/03 08:43:15;;;;;;;19.83;17.92;;;;;;;;;;1741313;28;20572;-76
2023/12/03 08:44:06;;;;;;;18.88;17.17;;;;;;;;;;1741136;28;20736;-75
2023/12/03 08:44:57;;;;;;;17.52;15.93;;;;;;;;;;1741260;28;20565;-76
2023/12/03 08:45:49;;;;;;;17.63;15.95;;;;;;;;;;1741080;28;20201;-75
2023/12/03 08:46:40;;;;;;;18.70;16.92;;;;;;;;;;1740723;28;20631;-75
2023/12/03 08:47:32;;;;;;;17.90;16.20;;;;;;;;;;1741025;28;20239;-75
2023/12/03 08:48:24;;;;;;;17.90;16.20;;;;;;;;;;1741127;28;20203;-76
2023/12/03 08:49:15;;;;;;;19.02;17.23;;;;;;;;;;1741173;28;20203;-76
2023/12/03 08:50:07;;;;;;;18.00;16.20;;;;;;;;;;1741137;28;20617;-76
2023/12/03 08:51:00;;;;;;;17.35;15.55;;;;;;;;;;1741159;28;20198;-76
2023/12/03 08:51:51;;;;;;;17.15;15.45;;;;;;;;;;1734252;28;20208;-77
2023/12/03 08:52:42;;;;;;;16.55;15.05;;;;;;;;;;1734332;28;20730;-76
2023/12/03 08:53:34;;;;;;;17.15;15.50;;;;;;;;;;1739836;28;20294;-76
2023/12/03 08:54:25;;;;;;;17.48;15.68;;;;;;;;;;1741079;28;20687;-76
2023/12/03 08:55:17;;;;;;;16.98;15.38;;;;;;;;;;1741200;28;20629;-76
2023/12/03 08:56:10;;;;;;;17.15;15.45;;;;;;;;;;1740724;28;20272;-76
2023/12/03 08:57:03;;;;;;;16.60;15.00;;;;;;;;;;1741061;28;20289;-76
2023/12/03 08:57:55;;;;;;;17.70;16.00;;;;;;;;;;1741120;28;20597;-75
2023/12/03 08:58:48;;;;;;;15.93;14.50;;;;;;;;;;1741133;28;20586;-75
2023/12/03 08:59:39;;;;;;;16.02;14.52;;;;;;;;;;1741092;28;20286;-76
2023/12/03 09:00:31;;;;;;;17.50;15.80;;;;;;;;;;1740243;28;20225;-75
2023/12/03 09:01:22;;;;;;;17.17;15.48;;;;;;;;;;1740568;28;20214;-76
2023/12/03 09:02:13;;;;;;;15.80;14.27;;;;;;;;;;1734237;28;20310;-76
2023/12/03 09:03:05;;;;;;;16.25;14.75;;;;;;;;;;1739674;28;20210;-76
2023/12/03 09:03:57;;;;;;;16.77;15.18;;;;;;;;;;1741133;28;20203;-75
2023/12/03 09:04:50;;;;;;;16.70;15.10;;;;;;;;;;1740989;28;20203;-76
2023/12/03 09:05:43;;;;;;;16.33;14.73;;;;;;;;;;1741051;28;20510;-76
2023/12/03 09:06:35;;;;;;;18.23;16.33;;;;;;;;;;1740629;28;20214;-76
2023/12/03 09:07:30;;;;;;;16.77;15.15;;;;;;;;;;1740978;28;20199;-76
2023/12/03 09:08:22;;;;;;;16.70;15.20;;;;;;;;;;1740731;28;20277;-76
2023/12/03 09:09:13;;;;;;;16.70;15.13;;;;;;;;;;1741138;28;20210;-76
2023/12/03 09:10:05;;;;;;;17.77;16.05;;;;;;;;;;1740990;28;20203;-76
2023/12/03 09:10:57;;;;;;;16.90;15.20;;;;;;;;;;1741119;28;20689;-76
2023/12/03 09:11:48;;;;;;;16.30;14.73;;;;;;;;;;1741183;28;20614;-77
2023/12/03 09:12:39;;;;;;;16.08;14.55;;;;;;;;;;1741019;28;20762;-78
2023/12/03 09:13:31;;;;;;;16.75;15.15;;;;;;;;;;1740504;28;20195;-79
2023/12/03 09:14:25;;;;;;;15.55;13.95;;;;;;;;;;1741444;28;20218;-79
2023/12/03 09:15:17;;;;;;;16.23;14.63;;;;;;;;;;1741148;28;20253;-79
2023/12/03 09:16:08;;;;;;;16.58;14.98;;;;;;;;;;1740343;28;20594;-79
2023/12/03 09:17:03;;;;;;;17.23;15.48;;;;;;;;;;1740885;28;20199;-79
2023/12/03 09:17:54;;;;;;;16.05;14.45;;;;;;;;;;1740818;28;20695;-79
2023/12/03 09:18:46;;;;;;;16.02;14.43;;;;;;;;;;1740891;28;20245;-79
2023/12/03 09:19:38;;;;;;;16.15;14.75;;;;;;;;;;1740880;28;20298;-79
2023/12/03 09:20:30;;;;;;;16.60;15.00;;;;;;;;;;1740627;28;20195;-79
2023/12/03 09:21:23;;;;;;;15.93;14.43;;;;;;;;;;1740979;28;20207;-79
2023/12/03 09:22:16;;;;;;;16.92;15.13;;;;;;;;;;1740912;28;20283;-80
2023/12/03 09:23:07;;;;;;;16.67;15.07;;;;;;;;;;1740984;28;20732;-81
2023/12/03 09:23:59;;;;;;;16.48;14.88;;;;;;;;;;1740001;28;20675;-80
2023/12/03 09:24:50;;;;;;;16.25;14.75;;;;;;;;;;1741439;28;20667;-80
2023/12/03 09:25:41;;;;;;;16.52;14.90;;;;;;;;;;1741644;28;20252;-80
2023/12/03 09:26:34;;;;;;;17.00;15.40;;;;;;;;;;1741053;28;20207;-80
2023/12/03 09:27:25;;;;;;;17.13;15.52;;;;;;;;;;1738300;28;20210;-79
2023/12/03 09:28:17;;;;;;;16.98;15.35;;;;;;;;;;1742099;28;20199;-78
2023/12/03 09:29:10;;;;;;;16.65;15.15;;;;;;;;;;1742250;28;20210;-78
2023/12/03 09:30:02;;;;;;;17.25;15.55;;;;;;;;;;1742723;28;20198;-79
2023/12/03 09:30:54;;;;;;;16.25;14.65;;;;;;;;;;1742603;28;20202;-78
2023/12/03 09:31:45;;;;;;;17.67;15.98;;;;;;;;;;1741601;28;20214;-77
2023/12/03 09:32:37;;;;;;;16.75;15.15;;;;;;;;;;1741117;28;20222;-76
2023/12/03 09:33:28;;;;;;;17.58;15.88;;;;;;;;;;1741029;28;20577;-77
2023/12/03 09:34:20;;;;;;;18.15;16.25;;;;;;;;;;1741165;28;20269;-77
2023/12/03 09:35:12;;;;;;;16.02;14.45;;;;;;;;;;1741114;28;20222;-77
2023/12/03 09:36:03;;;;;;;17.65;16.05;;;;;;;;;;1740191;28;20256;-76
2023/12/03 09:36:56;;;;;;;16.45;14.85;;;;;;;;;;1740981;28;20206;-77
2023/12/03 09:37:49;;;;;;;16.23;14.63;;;;;;;;;;1740888;28;20223;-75
2023/12/03 09:38:40;;;;;;;17.77;15.43;;;;;;;;;;1740995;28;20214;-75
2023/12/03 09:39:32;;;;;;;16.67;14.93;;;;;;;;;;1741178;28;20199;-77
2023/12/03 09:40:23;;;;;;;24.30;20.85;;;;;;;;;;1740951;28;20215;-75
2023/12/03 09:41:17;;;;;;;25.63;19.38;;;;;;;;;;1740942;28;20217;-75
2023/12/03 09:42:09;;;;;;;21.45;19.00;;;;;;;;;;1740985;28;20634;-76
2023/12/03 09:43:04;;;;;;;18.33;16.52;;;;;;;;;;1740617;28;20302;-75
2023/12/03 09:43:59;;;;;;;18.25;16.45;;;;;;;;;;1741019;28;20210;-75
2023/12/03 09:44:54;;;;;;;18.38;16.58;;;;;;;;;;1741211;28;20207;-77
2023/12/03 09:45:46;;;;;;;19.83;17.85;;;;;;;;;;1740934;28;20331;-75
2023/12/03 09:46:39;;;;;;;18.88;17.08;;;;;;;;;;1740082;28;20207;-75
2023/12/03 09:47:34;;;;;;;15.90;14.40;;;;;;;;;;1740749;28;20246;-76
2023/12/03 09:48:26;;;;;;;16.95;15.25;;;;;;;;;;1740740;28;20286;-76
2023/12/03 09:49:19;;;;;;;17.05;15.27;;;;;;;;;;1740829;28;20207;-75
2023/12/03 09:50:11;;;;;;;16.48;14.73;;;;;;;;;;1740770;28;20289;-76
2023/12/03 09:51:02;;;;;;;15.27;13.68;;;;;;;;;;1740855;28;20226;-76
2023/12/03 09:51:53;;;;;;;15.48;13.98;;;;;;;;;;1741184;28;20237;-75
2023/12/03 09:52:48;;;;;;;15.07;13.68;;;;;;;;;;1740976;28;20285;-75
2023/12/03 09:53:43;;;;;;;15.40;13.77;;;;;;;;;;1741013;28;20233;-75
2023/12/03 09:54:35;;;;;;;15.45;13.95;;;;;;;;;;1740805;28;20207;-75
2023/12/03 09:55:27;;;;;;;15.65;14.13;;;;;;;;;;1740941;28;20207;-75
2023/12/03 09:56:19;;;;;;;17.42;15.73;;;;;;;;;;1740109;28;20210;-76
2023/12/03 09:57:12;;;;;;;15.90;14.35;;;;;;;;;;1740893;28;20195;-75
2023/12/03 09:58:03;;;;;;;15.90;14.40;;;;;;;;;;1740692;28;20242;-75
2023/12/03 09:58:55;;;;;;;16.80;15.10;;;;;;;;;;1740959;28;20230;-75
2023/12/03 09:59:47;;;;;;;16.00;14.40;;;;;;;;;;1740856;28;20202;-76
2023/12/03 10:00:39;;;;;;;15.48;13.95;;;;;;;;;;1740926;28;20218;-75
2023/12/03 10:01:31;;;;;;;16.13;14.52;;;;;;;;;;1740834;28;20195;-75
2023/12/03 10:02:26;;;;;;;15.95;14.35;;;;;;;;;;1740910;28;20200;-74
2023/12/03 10:03:17;;;;;;;15.45;13.95;;;;;;;;;;1740943;28;20204;-76
2023/12/03 10:04:08;;;;;;;14.88;13.25;;;;;;;;;;1740684;28;20282;-75
2023/12/03 10:05:01;;;;;;;16.20;14.60;;;;;;;;;;1741026;28;20246;-75
2023/12/03 10:05:52;;;;;;;15.82;14.23;;;;;;;;;;1740881;28;20207;-75
2023/12/03 10:06:47;;;;;;;16.13;14.52;;;;;;;;;;1740127;28;20207;-75
2023/12/03 10:07:38;;;;;;;16.83;15.15;;;;;;;;;;1740922;28;20223;-75
2023/12/03 10:08:31;;;;;;;15.43;13.90;;;;;;;;;;1740617;28;20202;-76
2023/12/03 10:09:25;;;;;;;15.48;13.98;;;;;;;;;;1740384;28;20304;-77
2023/12/03 10:10:18;;;;;;;16.27;14.73;;;;;;;;;;1740676;28;20199;-77
2023/12/03 10:11:12;;;;;;;18.98;15.30;;;;;;;;;;1740439;28;20207;-76
2023/12/03 10:12:07;;;;;;;16.50;14.90;;;;;;;;;;1740249;28;20206;-76
2023/12/03 10:12:59;;;;;;;16.05;14.35;;;;;;;;;;1740312;28;20204;-76
2023/12/03 10:13:52;;;;;;;14.85;13.45;;;;;;;;;;1740632;28;20199;-76
2023/12/03 10:14:45;;;;;;;15.20;13.77;;;;;;;;;;1746168;28;20598;-77
2023/12/03 10:15:36;;;;;;;15.38;13.77;;;;;;;;;;1741146;28;20235;-76
2023/12/03 10:16:28;;;;;;;16.27;14.77;;;;;;;;;;1740139;28;20681;-76
2023/12/03 10:17:19;;;;;;;16.88;15.18;;;;;;;;;;1740877;28;20207;-77
2023/12/03 10:18:11;;;;;;;16.83;15.20;;;;;;;;;;1740936;28;20217;-76
2023/12/03 10:19:03;;;;;;;15.35;13.85;;;;;;;;;;1740876;28;20214;-76
2023/12/03 10:19:54;;;;;;;16.65;15.05;;;;;;;;;;1741080;28;20208;-76
2023/12/03 10:20:46;;;;;;;16.00;14.50;;;;;;;;;;1742133;28;20581;-78
2023/12/03 10:21:37;;;;;;;17.13;15.45;;;;;;;;;;1742178;28;20203;-77
2023/12/03 10:22:31;;;;;;;16.20;14.60;;;;;;;;;;1742061;28;20207;-77
2023/12/03 10:23:24;;;;;;;16.45;14.95;;;;;;;;;;1742066;28;20199;-77
2023/12/03 10:24:15;;;;;;;14.77;13.27;;;;;;;;;;1742027;28;20207;-77
2023/12/03 10:25:08;;;;;;;16.50;14.90;;;;;;;;;;1742151;28;20210;-76
2023/12/03 10:26:09;;;;;;;16.88;15.18;;;;;;;;;;1741688;28;20211;-77
2023/12/03 10:27:03;;;;;;;17.20;15.43;;;;;;;;;;1742136;28;20215;-77
2023/12/03 10:27:56;;;;;;;16.65;14.95;;;;;;;;;;1742842;28;20239;-77
2023/12/03 10:28:47;;;;;;;15.57;14.10;;;;;;;;;;1740618;28;20663;-77
2023/12/03 10:29:38;;;;;;;16.08;14.57;;;;;;;;;;1742119;28;20203;-76
2023/12/03 10:30:30;;;;;;;16.17;14.50;;;;;;;;;;1742116;28;20203;-78
2023/12/03 10:31:21;;;;;;;16.23;14.52;;;;;;;;;;1742376;28;20213;-76
2023/12/03 10:32:12;;;;;;;17.63;15.82;;;;;;;;;;1742220;28;20195;-76
2023/12/03 10:33:05;;;;;;;15.43;13.93;;;;;;;;;;1742055;28;20207;-77
2023/12/03 10:33:56;;;;;;;15.80;14.25;;;;;;;;;;1741918;28;20206;-75
2023/12/03 10:34:50;;;;;;;16.17;14.57;;;;;;;;;;1742001;28;20200;-77
2023/12/03 10:35:42;;;;;;;15.57;14.02;;;;;;;;;;1743191;28;20230;-77
2023/12/03 10:36:33;;;;;;;15.52;14.10;;;;;;;;;;1741212;28;20226;-77
2023/12/03 10:37:24;;;;;;;16.90;15.20;;;;;;;;;;1741917;28;20290;-76
2023/12/03 10:38:18;;;;;;;16.25;14.55;;;;;;;;;;1742231;28;20203;-78
2023/12/03 10:39:09;;;;;;;16.52;14.82;;;;;;;;;;1742753;28;20270;-78
2023/12/03 10:40:00;;;;;;;15.75;14.15;;;;;;;;;;1741992;28;20241;-76
2023/12/03 10:40:56;;;;;;;16.60;14.85;;;;;;;;;;1742019;28;20200;-77
2023/12/03 10:41:49;;;;;;;17.52;15.63;;;;;;;;;;1741957;28;20199;-76
2023/12/03 10:42:40;;;;;;;17.00;15.27;;;;;;;;;;1741937;28;20223;-76
2023/12/03 10:43:32;;;;;;;16.65;14.98;;;;;;;;;;1741931;28;20209;-77
2023/12/03 10:44:23;;;;;;;16.25;14.65;;;;;;;;;;1743015;28;20690;-77
2023/12/03 10:45:15;;;;;;;17.17;15.48;;;;;;;;;;1741941;28;20203;-76
2023/12/03 10:46:09;;;;;;;17.60;15.73;;;;;;;;;;1734691;28;20736;-77
2023/12/03 10:47:00;;;;;;;18.20;16.30;;;;;;;;;;1735146;28;20204;-77
2023/12/03 10:47:54;;;;;;;17.35;15.52;;;;;;;;;;1740603;28;20268;-76
2023/12/03 10:48:45;;;;;;;17.00;15.30;;;;;;;;;;1741912;28;20211;-77
2023/12/03 10:49:37;;;;;;;17.60;15.70;;;;;;;;;;1741926;28;20207;-77
2023/12/03 10:50:30;;;;;;;17.27;15.52;;;;;;;;;;1741838;28;20187;-76
2023/12/03 10:51:21;;;;;;;18.48;16.65;;;;;;;;;;1741922;28;20222;-76
2023/12/03 10:52:13;;;;;;;19.58;17.52;;;;;;;;;;1741958;28;20206;-75
2023/12/03 10:53:05;;;;;;;23.08;19.85;;;;;;;;;;1741807;28;20196;-76
2023/12/03 10:53:56;;;;;;;21.52;19.23;;;;;;;;;;1741854;28;20207;-77
2023/12/03 10:54:49;;;;;;;19.15;16.58;;;;;;;;;;1741877;28;20274;-77
2023/12/03 10:55:40;;;;;;;16.55;14.80;;;;;;;;;;1735037;28;20204;-76
2023/12/03 10:56:33;;;;;;;17.20;15.38;;;;;;;;;;1734543;28;20204;-76
2023/12/03 10:57:26;;;;;;;16.58;14.88;;;;;;;;;;1740681;28;20218;-76
2023/12/03 10:58:19;;;;;;;16.23;14.52;;;;;;;;;;1741825;28;20539;-77
2023/12/03 10:59:13;;;;;;;16.35;14.60;;;;;;;;;;1741812;28;20210;-76
2023/12/03 11:00:05;;;;;;;18.33;16.48;;;;;;;;;;1742062;28;20284;-75
2023/12/03 11:00:59;;;;;;;17.35;15.65;;;;;;;;;;1745108;28;20257;-76
2023/12/03 11:01:55;;;;;;;16.13;14.52;;;;;;;;;;1741848;28;20357;-76